sensor_id;sensor_type;location;lat;lon;timestamp;temperature;humidity
23063;DHT22;11699;43.704;10.430;2023-06-04T00:00:36;18.80;99.90
23063;DHT22;11699;43.704;10.430;2023-06-04T00:03:03;18.80;99.90
23063;DHT22;11699;43.704;10.430;2023-06-04T00:05:32;18.80;99.90
23063;DHT22;11699;43.704;10.430;2023-06-04T00:07:59;18.80;99.90
23063;DHT22;11699;43.704;10.430;2023-06-04T00:10:27;18.80;99.90
23063;DHT22;11699;43.704;10.430;2023-06-04T00:12:54;18.70;99.90
23063;DHT22;11699;43.704;10.430;2023-06-04T00:15:21;18.70;99.90
23063;DHT22;11699;43.704;10.430;2023-06-04T00:17:49;18.60;99.90
23063;DHT22;11699;43.704;10.430;2023-06-04T00:20:17;18.60;99.90
23063;DHT22;11699;43.704;10.430;2023-06-04T00:22:46;18.70;99.90
23063;DHT22;11699;43.704;10.430;2023-06-04T00:25:13;18.80;99.90
23063;DHT22;11699;43.704;10.430;2023-06-04T00:27:40;18.90;99.90
23063;DHT22;11699;43.704;10.430;2023-06-04T00:30:08;18.80;99.90
23063;DHT22;11699;43.704;10.430;2023-06-04T00:32:36;18.70;99.90
23063;DHT22;11699;43.704;10.430;2023-06-04T00:35:03;18.30;99.90
23063;DHT22;11699;43.704;10.430;2023-06-04T00:37:31;18.40;99.90
23063;DHT22;11699;43.704;10.430;2023-06-04T00:40:00;18.50;99.90
23063;DHT22;11699;43.704;10.430;2023-06-04T00:42:27;18.60;99.90
23063;DHT22;11699;43.704;10.430;2023-06-04T00:44:55;18.60;99.90
23063;DHT22;11699;43.704;10.430;2023-06-04T00:47:23;18.50;99.90
23063;DHT22;11699;43.704;10.430;2023-06-04T00:49:54;18.50;99.90
23063;DHT22;11699;43.704;10.430;2023-06-04T00:52:24;18.50;99.90
23063;DHT22;11699;43.704;10.430;2023-06-04T00:54:52;18.40;99.90
23063;DHT22;11699;43.704;10.430;2023-06-04T00:57:23;18.40;99.90
23063;DHT22;11699;43.704;10.430;2023-06-04T00:59:50;18.20;99.90
23063;DHT22;11699;43.704;10.430;2023-06-04T01:02:21;18.20;99.90
23063;DHT22;11699;43.704;10.430;2023-06-04T01:05:01;18.20;99.90
23063;DHT22;11699;43.704;10.430;2023-06-04T01:07:30;18.20;99.90
23063;DHT22;11699;43.704;10.430;2023-06-04T01:09:58;18.20;99.90
23063;DHT22;11699;43.704;10.430;2023-06-04T01:12:27;18.20;99.90
23063;DHT22;11699;43.704;10.430;2023-06-04T01:14:54;18.30;99.90
23063;DHT22;11699;43.704;10.430;2023-06-04T01:17:26;18.40;99.90
23063;DHT22;11699;43.704;10.430;2023-06-04T01:20:19;18.40;99.90
23063;DHT22;11699;43.704;10.430;2023-06-04T01:25:54;18.40;99.90
23063;DHT22;11699;43.704;10.430;2023-06-04T01:28:25;18.30;99.90
23063;DHT22;11699;43.704;10.430;2023-06-04T01:30:53;18.30;99.90
23063;DHT22;11699;43.704;10.430;2023-06-04T01:33:22;18.30;99.90
23063;DHT22;11699;43.704;10.430;2023-06-04T01:35:50;18.30;99.90
23063;DHT22;11699;43.704;10.430;2023-06-04T01:38:18;18.20;99.90
23063;DHT22;11699;43.704;10.430;2023-06-04T01:40:45;18.10;99.90
23063;DHT22;11699;43.704;10.430;2023-06-04T01:43:13;18.20;99.90
23063;DHT22;11699;43.704;10.430;2023-06-04T01:45:42;18.10;99.90
23063;DHT22;11699;43.704;10.430;2023-06-04T01:48:10;18.00;99.90
23063;DHT22;11699;43.704;10.430;2023-06-04T01:50:37;18.00;99.90
23063;DHT22;11699;43.704;10.430;2023-06-04T01:53:05;18.00;99.90
23063;DHT22;11699;43.704;10.430;2023-06-04T01:55:32;17.90;99.90
23063;DHT22;11699;43.704;10.430;2023-06-04T01:58:00;17.90;99.90
23063;DHT22;11699;43.704;10.430;2023-06-04T02:00:28;17.80;99.90
23063;DHT22;11699;43.704;10.430;2023-06-04T02:02:57;17.80;99.90
23063;DHT22;11699;43.704;10.430;2023-06-04T02:05:25;17.70;99.90
23063;DHT22;11699;43.704;10.430;2023-06-04T02:07:53;17.70;99.90
23063;DHT22;11699;43.704;10.430;2023-06-04T02:10:20;17.80;99.90
23063;DHT22;11699;43.704;10.430;2023-06-04T02:12:54;17.90;99.90
23063;DHT22;11699;43.704;10.430;2023-06-04T02:15:22;17.90;99.90
23063;DHT22;11699;43.704;10.430;2023-06-04T02:17:50;17.90;99.90
23063;DHT22;11699;43.704;10.430;2023-06-04T02:20:19;17.90;99.90
23063;DHT22;11699;43.704;10.430;2023-06-04T02:22:46;17.80;99.90
23063;DHT22;11699;43.704;10.430;2023-06-04T02:25:14;17.80;99.90
23063;DHT22;11699;43.704;10.430;2023-06-04T02:27:41;17.80;99.90
23063;DHT22;11699;43.704;10.430;2023-06-04T02:30:10;17.80;99.90
23063;DHT22;11699;43.704;10.430;2023-06-04T02:32:37;17.70;99.90
23063;DHT22;11699;43.704;10.430;2023-06-04T02:35:05;17.70;99.90
23063;DHT22;11699;43.704;10.430;2023-06-04T02:37:34;17.60;99.90
23063;DHT22;11699;43.704;10.430;2023-06-04T02:40:02;17.70;99.90
23063;DHT22;11699;43.704;10.430;2023-06-04T02:42:30;17.60;99.90
23063;DHT22;11699;43.704;10.430;2023-06-04T02:44:57;17.60;99.90
23063;DHT22;11699;43.704;10.430;2023-06-04T02:47:24;17.60;99.90
23063;DHT22;11699;43.704;10.430;2023-06-04T02:49:52;17.60;99.90
23063;DHT22;11699;43.704;10.430;2023-06-04T02:52:19;17.70;99.90
23063;DHT22;11699;43.704;10.430;2023-06-04T02:54:50;17.70;99.90
23063;DHT22;11699;43.704;10.430;2023-06-04T02:57:17;17.60;99.90
23063;DHT22;11699;43.704;10.430;2023-06-04T02:59:45;17.50;99.90
23063;DHT22;11699;43.704;10.430;2023-06-04T03:02:12;17.60;99.90
23063;DHT22;11699;43.704;10.430;2023-06-04T03:04:41;17.50;99.90
23063;DHT22;11699;43.704;10.430;2023-06-04T03:07:09;17.60;99.90
23063;DHT22;11699;43.704;10.430;2023-06-04T03:09:38;17.60;99.90
23063;DHT22;11699;43.704;10.430;2023-06-04T03:12:09;17.60;99.90
23063;DHT22;11699;43.704;10.430;2023-06-04T03:14:36;17.50;99.90
23063;DHT22;11699;43.704;10.430;2023-06-04T03:17:04;17.50;99.90
23063;DHT22;11699;43.704;10.430;2023-06-04T03:19:37;17.40;99.90
23063;DHT22;11699;43.704;10.430;2023-06-04T03:22:05;17.40;99.90
23063;DHT22;11699;43.704;10.430;2023-06-04T03:24:34;17.40;99.90
23063;DHT22;11699;43.704;10.430;2023-06-04T03:27:02;17.50;99.90
23063;DHT22;11699;43.704;10.430;2023-06-04T03:29:32;17.50;99.90
23063;DHT22;11699;43.704;10.430;2023-06-04T03:32:00;17.40;99.90
23063;DHT22;11699;43.704;10.430;2023-06-04T03:34:27;17.50;99.90
23063;DHT22;11699;43.704;10.430;2023-06-04T03:36:57;17.50;99.90
23063;DHT22;11699;43.704;10.430;2023-06-04T03:39:25;17.50;99.90
23063;DHT22;11699;43.704;10.430;2023-06-04T03:41:53;17.40;99.90
23063;DHT22;11699;43.704;10.430;2023-06-04T03:44:22;17.40;99.90
23063;DHT22;11699;43.704;10.430;2023-06-04T03:46:50;17.40;99.90
23063;DHT22;11699;43.704;10.430;2023-06-04T03:49:18;17.50;99.90
23063;DHT22;11699;43.704;10.430;2023-06-04T03:51:46;17.50;99.90
23063;DHT22;11699;43.704;10.430;2023-06-04T03:54:14;17.50;99.90
23063;DHT22;11699;43.704;10.430;2023-06-04T03:56:44;17.50;99.90
23063;DHT22;11699;43.704;10.430;2023-06-04T03:59:11;17.50;99.90
23063;DHT22;11699;43.704;10.430;2023-06-04T04:01:39;17.50;99.90
23063;DHT22;11699;43.704;10.430;2023-06-04T04:04:07;17.50;99.90
23063;DHT22;11699;43.704;10.430;2023-06-04T04:06:35;17.50;99.90
23063;DHT22;11699;43.704;10.430;2023-06-04T04:09:03;17.60;99.90
23063;DHT22;11699;43.704;10.430;2023-06-04T04:11:32;17.70;99.90
23063;DHT22;11699;43.704;10.430;2023-06-04T04:13:59;17.70;99.90
23063;DHT22;11699;43.704;10.430;2023-06-04T04:16:27;17.70;99.90
23063;DHT22;11699;43.704;10.430;2023-06-04T04:18:54;17.80;99.90
23063;DHT22;11699;43.704;10.430;2023-06-04T04:21:23;17.70;99.90
23063;DHT22;11699;43.704;10.430;2023-06-04T04:23:50;17.80;99.90
23063;DHT22;11699;43.704;10.430;2023-06-04T04:26:18;17.80;99.90
23063;DHT22;11699;43.704;10.430;2023-06-04T04:28:46;17.70;99.90
23063;DHT22;11699;43.704;10.430;2023-06-04T04:31:13;17.70;99.90
23063;DHT22;11699;43.704;10.430;2023-06-04T04:33:41;17.80;99.90
23063;DHT22;11699;43.704;10.430;2023-06-04T04:36:09;17.90;99.90
23063;DHT22;11699;43.704;10.430;2023-06-04T04:38:40;18.10;99.90
23063;DHT22;11699;43.704;10.430;2023-06-04T04:41:07;18.10;99.90
23063;DHT22;11699;43.704;10.430;2023-06-04T04:43:36;18.10;99.90
23063;DHT22;11699;43.704;10.430;2023-06-04T04:46:05;18.20;99.90
23063;DHT22;11699;43.704;10.430;2023-06-04T04:48:32;18.20;99.90
23063;DHT22;11699;43.704;10.430;2023-06-04T04:51:00;18.30;99.90
23063;DHT22;11699;43.704;10.430;2023-06-04T04:53:28;18.40;99.90
23063;DHT22;11699;43.704;10.430;2023-06-04T04:55:57;18.40;99.90
23063;DHT22;11699;43.704;10.430;2023-06-04T04:58:24;18.50;99.90
23063;DHT22;11699;43.704;10.430;2023-06-04T05:00:51;18.60;99.90
23063;DHT22;11699;43.704;10.430;2023-06-04T05:03:19;18.60;99.90
23063;DHT22;11699;43.704;10.430;2023-06-04T05:05:46;18.70;99.90
23063;DHT22;11699;43.704;10.430;2023-06-04T05:08:13;18.80;99.90
23063;DHT22;11699;43.704;10.430;2023-06-04T05:10:41;18.80;99.90
23063;DHT22;11699;43.704;10.430;2023-06-04T05:13:09;18.80;99.90
23063;DHT22;11699;43.704;10.430;2023-06-04T05:15:37;18.90;99.90
23063;DHT22;11699;43.704;10.430;2023-06-04T05:18:05;19.00;99.90
23063;DHT22;11699;43.704;10.430;2023-06-04T05:20:33;18.90;99.90
23063;DHT22;11699;43.704;10.430;2023-06-04T05:23:03;19.00;99.90
23063;DHT22;11699;43.704;10.430;2023-06-04T05:25:31;19.00;99.90
23063;DHT22;11699;43.704;10.430;2023-06-04T05:27:58;19.00;99.90
23063;DHT22;11699;43.704;10.430;2023-06-04T05:30:27;19.20;99.90
23063;DHT22;11699;43.704;10.430;2023-06-04T05:32:54;19.20;99.90
23063;DHT22;11699;43.704;10.430;2023-06-04T05:35:21;19.30;99.90
23063;DHT22;11699;43.704;10.430;2023-06-04T05:37:49;19.30;99.90
23063;DHT22;11699;43.704;10.430;2023-06-04T05:40:19;19.40;99.90
23063;DHT22;11699;43.704;10.430;2023-06-04T05:42:48;19.40;99.90
23063;DHT22;11699;43.704;10.430;2023-06-04T05:45:15;19.20;99.90
23063;DHT22;11699;43.704;10.430;2023-06-04T05:47:44;19.30;99.90
23063;DHT22;11699;43.704;10.430;2023-06-04T05:50:11;19.30;99.90
23063;DHT22;11699;43.704;10.430;2023-06-04T05:52:39;19.40;99.90
23063;DHT22;11699;43.704;10.430;2023-06-04T05:55:07;19.40;99.90
23063;DHT22;11699;43.704;10.430;2023-06-04T05:57:35;19.50;99.90
23063;DHT22;11699;43.704;10.430;2023-06-04T06:00:02;19.50;99.90
23063;DHT22;11699;43.704;10.430;2023-06-04T06:02:34;19.50;99.90
23063;DHT22;11699;43.704;10.430;2023-06-04T06:05:03;19.70;99.90
23063;DHT22;11699;43.704;10.430;2023-06-04T06:07:31;19.70;99.90
23063;DHT22;11699;43.704;10.430;2023-06-04T06:09:58;19.90;99.90
23063;DHT22;11699;43.704;10.430;2023-06-04T06:12:26;20.10;99.90
23063;DHT22;11699;43.704;10.430;2023-06-04T06:14:53;20.20;99.90
23063;DHT22;11699;43.704;10.430;2023-06-04T06:17:20;20.30;99.90
23063;DHT22;11699;43.704;10.430;2023-06-04T06:19:48;20.40;99.90
23063;DHT22;11699;43.704;10.430;2023-06-04T06:22:17;20.50;99.90
23063;DHT22;11699;43.704;10.430;2023-06-04T06:24:44;20.80;99.90
23063;DHT22;11699;43.704;10.430;2023-06-04T06:27:14;20.90;99.90
23063;DHT22;11699;43.704;10.430;2023-06-04T06:29:42;21.20;99.90
23063;DHT22;11699;43.704;10.430;2023-06-04T06:32:10;21.40;99.90
23063;DHT22;11699;43.704;10.430;2023-06-04T06:34:38;21.60;99.90
23063;DHT22;11699;43.704;10.430;2023-06-04T06:37:06;21.70;99.90
23063;DHT22;11699;43.704;10.430;2023-06-04T06:39:35;21.90;99.90
23063;DHT22;11699;43.704;10.430;2023-06-04T06:42:02;22.10;99.90
23063;DHT22;11699;43.704;10.430;2023-06-04T06:44:30;22.30;99.90
23063;DHT22;11699;43.704;10.430;2023-06-04T06:46:57;22.60;99.90
23063;DHT22;11699;43.704;10.430;2023-06-04T06:49:25;22.80;99.90
23063;DHT22;11699;43.704;10.430;2023-06-04T06:51:52;23.10;99.90
23063;DHT22;11699;43.704;10.430;2023-06-04T06:54:19;23.30;99.90
23063;DHT22;11699;43.704;10.430;2023-06-04T06:56:49;23.50;99.90
23063;DHT22;11699;43.704;10.430;2023-06-04T06:59:17;23.30;99.90
23063;DHT22;11699;43.704;10.430;2023-06-04T07:01:44;23.40;99.90
23063;DHT22;11699;43.704;10.430;2023-06-04T07:04:13;23.70;99.90
23063;DHT22;11699;43.704;10.430;2023-06-04T07:06:40;23.90;99.90
23063;DHT22;11699;43.704;10.430;2023-06-04T07:09:08;24.20;99.90
23063;DHT22;11699;43.704;10.430;2023-06-04T07:11:35;24.40;99.90
23063;DHT22;11699;43.704;10.430;2023-06-04T07:14:04;24.40;99.90
23063;DHT22;11699;43.704;10.430;2023-06-04T07:16:31;24.20;99.90
23063;DHT22;11699;43.704;10.430;2023-06-04T07:19:01;23.60;99.90
23063;DHT22;11699;43.704;10.430;2023-06-04T07:21:28;23.50;99.90
23063;DHT22;11699;43.704;10.430;2023-06-04T07:23:56;23.50;99.90
23063;DHT22;11699;43.704;10.430;2023-06-04T07:26:23;23.40;99.90
23063;DHT22;11699;43.704;10.430;2023-06-04T07:28:52;23.30;99.90
23063;DHT22;11699;43.704;10.430;2023-06-04T07:31:21;23.40;99.90
23063;DHT22;11699;43.704;10.430;2023-06-04T07:33:48;23.50;99.90
23063;DHT22;11699;43.704;10.430;2023-06-04T07:36:16;23.90;99.90
23063;DHT22;11699;43.704;10.430;2023-06-04T07:38:44;24.00;99.90
23063;DHT22;11699;43.704;10.430;2023-06-04T07:41:11;23.70;99.90
23063;DHT22;11699;43.704;10.430;2023-06-04T07:43:38;23.70;99.90
23063;DHT22;11699;43.704;10.430;2023-06-04T07:46:06;23.60;99.90
23063;DHT22;11699;43.704;10.430;2023-06-04T07:48:36;23.70;99.90
23063;DHT22;11699;43.704;10.430;2023-06-04T07:51:04;23.90;99.90
23063;DHT22;11699;43.704;10.430;2023-06-04T07:53:31;24.40;99.90
23063;DHT22;11699;43.704;10.430;2023-06-04T07:55:58;25.40;99.90
23063;DHT22;11699;43.704;10.430;2023-06-04T07:58:26;26.30;99.90
23063;DHT22;11699;43.704;10.430;2023-06-04T08:00:53;27.00;99.90
23063;DHT22;11699;43.704;10.430;2023-06-04T08:03:41;27.10;99.90
23063;DHT22;11699;43.704;10.430;2023-06-04T08:06:09;26.90;99.90
23063;DHT22;11699;43.704;10.430;2023-06-04T08:08:37;26.30;99.90
23063;DHT22;11699;43.704;10.430;2023-06-04T08:11:04;26.50;99.90
23063;DHT22;11699;43.704;10.430;2023-06-04T08:13:31;26.80;99.90
23063;DHT22;11699;43.704;10.430;2023-06-04T08:15:59;27.40;99.90
23063;DHT22;11699;43.704;10.430;2023-06-04T08:18:26;27.80;99.90
23063;DHT22;11699;43.704;10.430;2023-06-04T08:20:55;28.30;99.90
23063;DHT22;11699;43.704;10.430;2023-06-04T08:23:23;28.70;99.90
23063;DHT22;11699;43.704;10.430;2023-06-04T08:25:50;28.80;99.90
23063;DHT22;11699;43.704;10.430;2023-06-04T08:28:17;28.40;99.90
23063;DHT22;11699;43.704;10.430;2023-06-04T08:30:45;27.60;99.90
23063;DHT22;11699;43.704;10.430;2023-06-04T08:33:13;27.40;99.90
23063;DHT22;11699;43.704;10.430;2023-06-04T08:35:40;27.00;99.90
23063;DHT22;11699;43.704;10.430;2023-06-04T08:38:09;26.90;99.90
23063;DHT22;11699;43.704;10.430;2023-06-04T08:40:36;27.10;99.90
23063;DHT22;11699;43.704;10.430;2023-06-04T08:43:04;27.30;99.90
23063;DHT22;11699;43.704;10.430;2023-06-04T08:45:33;27.50;99.90
23063;DHT22;11699;43.704;10.430;2023-06-04T08:48:09;27.80;99.90
23063;DHT22;11699;43.704;10.430;2023-06-04T08:50:39;28.10;99.90
23063;DHT22;11699;43.704;10.430;2023-06-04T08:53:13;27.90;99.90
23063;DHT22;11699;43.704;10.430;2023-06-04T08:55:41;27.50;99.90
23063;DHT22;11699;43.704;10.430;2023-06-04T08:58:10;27.60;99.90
23063;DHT22;11699;43.704;10.430;2023-06-04T09:00:39;27.80;99.90
23063;DHT22;11699;43.704;10.430;2023-06-04T09:03:06;28.00;99.90
23063;DHT22;11699;43.704;10.430;2023-06-04T09:05:34;28.40;99.90
23063;DHT22;11699;43.704;10.430;2023-06-04T09:08:04;28.80;99.90
23063;DHT22;11699;43.704;10.430;2023-06-04T09:10:36;29.10;99.90
23063;DHT22;11699;43.704;10.430;2023-06-04T09:13:07;30.00;99.90
23063;DHT22;11699;43.704;10.430;2023-06-04T09:15:35;30.70;99.90
23063;DHT22;11699;43.704;10.430;2023-06-04T09:18:02;31.20;99.90
23063;DHT22;11699;43.704;10.430;2023-06-04T09:20:30;31.30;99.90
23063;DHT22;11699;43.704;10.430;2023-06-04T09:22:58;31.30;99.90
23063;DHT22;11699;43.704;10.430;2023-06-04T09:25:27;31.30;99.90
23063;DHT22;11699;43.704;10.430;2023-06-04T09:27:58;31.00;99.90
23063;DHT22;11699;43.704;10.430;2023-06-04T09:30:32;30.60;99.90
23063;DHT22;11699;43.704;10.430;2023-06-04T09:33:06;30.30;99.90
23063;DHT22;11699;43.704;10.430;2023-06-04T09:35:34;30.30;99.90
23063;DHT22;11699;43.704;10.430;2023-06-04T09:38:01;29.90;99.90
23063;DHT22;11699;43.704;10.430;2023-06-04T09:40:35;29.40;99.90
23063;DHT22;11699;43.704;10.430;2023-06-04T09:43:05;29.70;99.90
23063;DHT22;11699;43.704;10.430;2023-06-04T09:45:33;29.70;99.90
23063;DHT22;11699;43.704;10.430;2023-06-04T09:48:02;29.80;99.90
23063;DHT22;11699;43.704;10.430;2023-06-04T09:50:32;29.80;99.90
23063;DHT22;11699;43.704;10.430;2023-06-04T09:53:13;29.60;99.90
23063;DHT22;11699;43.704;10.430;2023-06-04T09:55:41;29.50;99.90
23063;DHT22;11699;43.704;10.430;2023-06-04T09:58:10;29.60;99.90
23063;DHT22;11699;43.704;10.430;2023-06-04T10:00:40;29.70;99.90
23063;DHT22;11699;43.704;10.430;2023-06-04T10:03:11;29.90;99.90
23063;DHT22;11699;43.704;10.430;2023-06-04T10:05:42;29.80;99.90
23063;DHT22;11699;43.704;10.430;2023-06-04T10:08:09;29.90;99.90
23063;DHT22;11699;43.704;10.430;2023-06-04T10:10:38;30.00;99.90
23063;DHT22;11699;43.704;10.430;2023-06-04T10:13:09;30.00;99.90
23063;DHT22;11699;43.704;10.430;2023-06-04T10:15:42;30.00;99.90
23063;DHT22;11699;43.704;10.430;2023-06-04T10:18:10;30.00;99.90
23063;DHT22;11699;43.704;10.430;2023-06-04T10:20:38;30.20;99.90
23063;DHT22;11699;43.704;10.430;2023-06-04T10:23:06;29.90;99.90
23063;DHT22;11699;43.704;10.430;2023-06-04T10:25:34;29.70;99.90
23063;DHT22;11699;43.704;10.430;2023-06-04T10:28:03;29.80;99.90
23063;DHT22;11699;43.704;10.430;2023-06-04T10:30:31;29.80;99.90
23063;DHT22;11699;43.704;10.430;2023-06-04T10:33:00;30.20;99.90
23063;DHT22;11699;43.704;10.430;2023-06-04T10:35:31;30.40;99.90
23063;DHT22;11699;43.704;10.430;2023-06-04T10:38:08;30.30;99.90
23063;DHT22;11699;43.704;10.430;2023-06-04T10:40:36;29.90;99.90
23063;DHT22;11699;43.704;10.430;2023-06-04T10:43:06;29.90;99.90
23063;DHT22;11699;43.704;10.430;2023-06-04T10:45:34;29.30;99.90
23063;DHT22;11699;43.704;10.430;2023-06-04T10:48:05;29.30;99.90
23063;DHT22;11699;43.704;10.430;2023-06-04T10:50:33;29.30;99.90
23063;DHT22;11699;43.704;10.430;2023-06-04T10:53:01;29.30;99.90
23063;DHT22;11699;43.704;10.430;2023-06-04T10:55:29;29.40;99.90
23063;DHT22;11699;43.704;10.430;2023-06-04T10:57:57;29.70;99.90
23063;DHT22;11699;43.704;10.430;2023-06-04T11:00:35;29.90;99.90
23063;DHT22;11699;43.704;10.430;2023-06-04T11:03:04;30.00;99.90
23063;DHT22;11699;43.704;10.430;2023-06-04T11:05:36;30.10;99.90
23063;DHT22;11699;43.704;10.430;2023-06-04T11:08:04;29.70;99.90
23063;DHT22;11699;43.704;10.430;2023-06-04T11:10:34;29.40;99.90
23063;DHT22;11699;43.704;10.430;2023-06-04T11:13:02;29.50;99.90
23063;DHT22;11699;43.704;10.430;2023-06-04T11:15:41;29.50;99.90
23063;DHT22;11699;43.704;10.430;2023-06-04T11:18:13;29.60;99.90
23063;DHT22;11699;43.704;10.430;2023-06-04T11:20:41;29.40;99.90
23063;DHT22;11699;43.704;10.430;2023-06-04T11:23:12;29.70;99.90
23063;DHT22;11699;43.704;10.430;2023-06-04T11:25:39;29.70;99.90
23063;DHT22;11699;43.704;10.430;2023-06-04T11:28:08;29.50;99.90
23063;DHT22;11699;43.704;10.430;2023-06-04T11:30:41;28.80;99.90
23063;DHT22;11699;43.704;10.430;2023-06-04T11:33:09;28.60;99.90
23063;DHT22;11699;43.704;10.430;2023-06-04T11:35:40;28.70;99.90
23063;DHT22;11699;43.704;10.430;2023-06-04T11:38:09;28.80;99.90
23063;DHT22;11699;43.704;10.430;2023-06-04T11:40:37;29.00;99.90
23063;DHT22;11699;43.704;10.430;2023-06-04T11:43:05;29.40;99.90
23063;DHT22;11699;43.704;10.430;2023-06-04T11:45:36;29.40;99.90
23063;DHT22;11699;43.704;10.430;2023-06-04T11:48:05;29.40;99.90
23063;DHT22;11699;43.704;10.430;2023-06-04T11:50:35;29.40;99.90
23063;DHT22;11699;43.704;10.430;2023-06-04T11:53:03;29.40;99.90
23063;DHT22;11699;43.704;10.430;2023-06-04T11:55:31;29.40;99.90
23063;DHT22;11699;43.704;10.430;2023-06-04T11:57:58;29.30;99.90
23063;DHT22;11699;43.704;10.430;2023-06-04T12:00:26;29.10;99.90
23063;DHT22;11699;43.704;10.430;2023-06-04T12:02:55;28.90;99.90
23063;DHT22;11699;43.704;10.430;2023-06-04T12:05:29;28.50;99.90
23063;DHT22;11699;43.704;10.430;2023-06-04T12:08:05;28.00;99.90
23063;DHT22;11699;43.704;10.430;2023-06-04T12:10:38;27.60;99.90
23063;DHT22;11699;43.704;10.430;2023-06-04T12:13:06;27.30;99.90
23063;DHT22;11699;43.704;10.430;2023-06-04T12:15:33;27.00;99.90
23063;DHT22;11699;43.704;10.430;2023-06-04T12:18:00;26.80;99.90
23063;DHT22;11699;43.704;10.430;2023-06-04T12:20:34;26.70;99.90
23063;DHT22;11699;43.704;10.430;2023-06-04T12:23:02;26.50;99.90
23063;DHT22;11699;43.704;10.430;2023-06-04T12:25:32;26.30;99.90
23063;DHT22;11699;43.704;10.430;2023-06-04T12:28:00;26.30;99.90
23063;DHT22;11699;43.704;10.430;2023-06-04T12:30:37;26.20;99.90
23063;DHT22;11699;43.704;10.430;2023-06-04T12:33:04;26.00;99.90
23063;DHT22;11699;43.704;10.430;2023-06-04T12:35:33;25.80;99.90
23063;DHT22;11699;43.704;10.430;2023-06-04T12:38:03;25.70;99.90
23063;DHT22;11699;43.704;10.430;2023-06-04T12:40:32;25.80;99.90
23063;DHT22;11699;43.704;10.430;2023-06-04T12:42:59;25.90;99.90
23063;DHT22;11699;43.704;10.430;2023-06-04T12:45:27;25.90;99.90
23063;DHT22;11699;43.704;10.430;2023-06-04T12:47:54;26.00;99.90
23063;DHT22;11699;43.704;10.430;2023-06-04T12:50:21;26.10;99.90
23063;DHT22;11699;43.704;10.430;2023-06-04T12:52:49;26.30;99.90
23063;DHT22;11699;43.704;10.430;2023-06-04T12:55:16;26.80;99.90
23063;DHT22;11699;43.704;10.430;2023-06-04T12:57:45;27.30;99.90
23063;DHT22;11699;43.704;10.430;2023-06-04T13:00:13;27.40;99.90
23063;DHT22;11699;43.704;10.430;2023-06-04T13:02:42;27.70;99.90
23063;DHT22;11699;43.704;10.430;2023-06-04T13:05:09;27.90;99.90
23063;DHT22;11699;43.704;10.430;2023-06-04T13:07:37;27.90;99.90
23063;DHT22;11699;43.704;10.430;2023-06-04T13:10:05;28.00;99.90
23063;DHT22;11699;43.704;10.430;2023-06-04T13:12:32;28.20;99.90
23063;DHT22;11699;43.704;10.430;2023-06-04T13:15:01;28.20;99.90
23063;DHT22;11699;43.704;10.430;2023-06-04T13:17:29;28.20;99.90
23063;DHT22;11699;43.704;10.430;2023-06-04T13:19:57;28.10;99.90
23063;DHT22;11699;43.704;10.430;2023-06-04T13:22:24;28.30;99.90
23063;DHT22;11699;43.704;10.430;2023-06-04T13:24:51;28.10;99.90
23063;DHT22;11699;43.704;10.430;2023-06-04T13:27:19;27.70;99.90
23063;DHT22;11699;43.704;10.430;2023-06-04T13:29:46;27.50;99.90
23063;DHT22;11699;43.704;10.430;2023-06-04T13:32:15;27.50;99.90
23063;DHT22;11699;43.704;10.430;2023-06-04T13:34:42;27.50;99.90
23063;DHT22;11699;43.704;10.430;2023-06-04T13:37:09;27.30;99.90
23063;DHT22;11699;43.704;10.430;2023-06-04T13:39:38;27.50;99.90
23063;DHT22;11699;43.704;10.430;2023-06-04T13:42:06;27.30;99.90
23063;DHT22;11699;43.704;10.430;2023-06-04T13:44:33;27.30;99.90
23063;DHT22;11699;43.704;10.430;2023-06-04T13:47:01;26.90;99.90
23063;DHT22;11699;43.704;10.430;2023-06-04T13:49:33;25.90;99.90
23063;DHT22;11699;43.704;10.430;2023-06-04T13:52:01;25.00;99.90
23063;DHT22;11699;43.704;10.430;2023-06-04T13:54:28;24.50;99.90
23063;DHT22;11699;43.704;10.430;2023-06-04T13:56:57;24.10;99.90
23063;DHT22;11699;43.704;10.430;2023-06-04T13:59:24;23.70;99.90
23063;DHT22;11699;43.704;10.430;2023-06-04T14:01:52;23.40;99.90
23063;DHT22;11699;43.704;10.430;2023-06-04T14:04:19;23.30;99.90
23063;DHT22;11699;43.704;10.430;2023-06-04T14:06:48;23.20;99.90
23063;DHT22;11699;43.704;10.430;2023-06-04T14:09:15;22.90;99.90
23063;DHT22;11699;43.704;10.430;2023-06-04T14:11:42;22.70;99.90
23063;DHT22;11699;43.704;10.430;2023-06-04T14:14:10;22.80;99.90
23063;DHT22;11699;43.704;10.430;2023-06-04T14:16:37;22.90;99.90
23063;DHT22;11699;43.704;10.430;2023-06-04T14:19:04;22.70;99.90
23063;DHT22;11699;43.704;10.430;2023-06-04T14:21:32;22.60;99.90
23063;DHT22;11699;43.704;10.430;2023-06-04T14:24:00;22.60;99.90
23063;DHT22;11699;43.704;10.430;2023-06-04T14:26:28;22.70;99.90
23063;DHT22;11699;43.704;10.430;2023-06-04T14:28:56;22.90;99.90
23063;DHT22;11699;43.704;10.430;2023-06-04T14:31:23;23.10;99.90
23063;DHT22;11699;43.704;10.430;2023-06-04T14:33:51;23.00;99.90
23063;DHT22;11699;43.704;10.430;2023-06-04T14:36:18;22.90;99.90
23063;DHT22;11699;43.704;10.430;2023-06-04T14:38:46;23.10;99.90
23063;DHT22;11699;43.704;10.430;2023-06-04T14:41:16;23.40;99.90
23063;DHT22;11699;43.704;10.430;2023-06-04T14:43:43;23.60;99.90
23063;DHT22;11699;43.704;10.430;2023-06-04T14:46:10;23.70;99.90
23063;DHT22;11699;43.704;10.430;2023-06-04T14:48:38;23.50;99.90
23063;DHT22;11699;43.704;10.430;2023-06-04T14:51:05;23.50;99.90
23063;DHT22;11699;43.704;10.430;2023-06-04T14:53:32;23.70;99.90
23063;DHT22;11699;43.704;10.430;2023-06-04T14:56:00;23.70;99.90
23063;DHT22;11699;43.704;10.430;2023-06-04T14:58:29;23.40;99.90
23063;DHT22;11699;43.704;10.430;2023-06-04T15:00:56;23.50;99.90
23063;DHT22;11699;43.704;10.430;2023-06-04T15:03:24;23.50;99.90
23063;DHT22;11699;43.704;10.430;2023-06-04T15:05:51;23.70;99.90
23063;DHT22;11699;43.704;10.430;2023-06-04T15:08:20;23.30;99.90
23063;DHT22;11699;43.704;10.430;2023-06-04T15:10:47;23.30;99.90
23063;DHT22;11699;43.704;10.430;2023-06-04T15:13:14;23.70;99.90
23063;DHT22;11699;43.704;10.430;2023-06-04T15:15:43;24.00;99.90
23063;DHT22;11699;43.704;10.430;2023-06-04T15:18:11;24.30;99.90
23063;DHT22;11699;43.704;10.430;2023-06-04T15:20:38;24.50;99.90
23063;DHT22;11699;43.704;10.430;2023-06-04T15:23:06;24.60;99.90
23063;DHT22;11699;43.704;10.430;2023-06-04T15:25:33;24.40;99.90